createdAt,value
2023-07-31T00:01:08.527Z,1.60
2023-07-31T00:03:36.823Z,1.60
2023-07-31T00:06:05.186Z,1.60
2023-07-31T00:08:34.705Z,1.53
2023-07-31T00:11:02.814Z,2.37
2023-07-31T00:13:30.837Z,1.70
2023-07-31T00:15:58.958Z,2.00
2023-07-31T00:18:27.145Z,1.40
2023-07-31T00:20:55.301Z,1.50
2023-07-31T00:23:23.382Z,2.00
2023-07-31T00:25:52.856Z,2.03
2023-07-31T00:28:20.965Z,1.97
2023-07-31T00:30:49.028Z,1.70
2023-07-31T00:33:17.108Z,1.50
2023-07-31T00:35:45.171Z,2.10
2023-07-31T00:38:13.361Z,2.30
2023-07-31T00:40:41.424Z,1.57
2023-07-31T00:43:10.912Z,1.70
2023-07-31T00:45:39.534Z,1.87
2023-07-31T00:48:08.586Z,2.10
2023-07-31T00:50:37.703Z,1.70
2023-07-31T00:53:05.829Z,1.70
2023-07-31T00:55:34.099Z,1.90
2023-07-31T00:58:02.272Z,2.20
2023-07-31T01:00:31.685Z,2.10
2023-07-31T01:03:00.398Z,2.43
2023-07-31T01:05:38.992Z,1.80
2023-07-31T01:08:14.578Z,1.80
2023-07-31T01:10:48.846Z,1.87
2023-07-31T01:13:18.059Z,2.70
2023-07-31T01:15:47.464Z,1.90
2023-07-31T01:18:15.520Z,2.73
2023-07-31T01:20:45.236Z,2.00
2023-07-31T01:23:37.194Z,1.43
2023-07-31T01:26:14.843Z,2.20
2023-07-31T01:28:52.714Z,1.97
2023-07-31T01:31:25.034Z,1.83
2023-07-31T01:33:55.936Z,2.10
2023-07-31T01:36:24.154Z,1.90
2023-07-31T01:38:52.313Z,2.10
2023-07-31T01:41:21.677Z,2.00
2023-07-31T01:43:50.181Z,2.10
2023-07-31T01:46:18.406Z,1.60
2023-07-31T01:48:46.527Z,1.60
2023-07-31T01:51:14.653Z,2.10
2023-07-31T01:53:42.765Z,1.73
2023-07-31T01:56:10.817Z,2.30
2023-07-31T01:58:40.495Z,2.00
2023-07-31T02:01:08.531Z,1.60
2023-07-31T02:03:36.767Z,1.83
2023-07-31T02:06:05.035Z,1.80
2023-07-31T02:08:33.107Z,2.23
2023-07-31T02:11:01.228Z,1.77
2023-07-31T02:13:29.388Z,1.90
2023-07-31T02:15:58.849Z,2.30
2023-07-31T02:18:26.920Z,1.63
2023-07-31T02:20:55.221Z,1.70
2023-07-31T02:23:23.266Z,1.70
2023-07-31T02:25:51.342Z,2.03
2023-07-31T02:28:19.428Z,1.63
2023-07-31T02:30:48.093Z,1.50
2023-07-31T02:33:17.909Z,1.90
2023-07-31T02:35:45.956Z,1.70
2023-07-31T02:38:14.061Z,2.27
2023-07-31T02:40:42.350Z,1.93
2023-07-31T02:43:10.570Z,1.80
2023-07-31T02:45:38.852Z,1.53
2023-07-31T02:48:07.314Z,1.90
2023-07-31T02:50:36.753Z,1.60
2023-07-31T02:53:04.910Z,1.60
2023-07-31T02:55:32.962Z,2.07
2023-07-31T02:58:01.059Z,2.23
2023-07-31T03:00:29.542Z,1.73
2023-07-31T03:02:57.719Z,1.90
2023-07-31T03:05:25.886Z,2.23
2023-07-31T03:07:55.356Z,1.80
2023-07-31T03:10:23.410Z,2.00
2023-07-31T03:12:51.455Z,1.77
2023-07-31T03:15:19.531Z,2.00
2023-07-31T03:17:47.672Z,2.10
2023-07-31T03:20:17.596Z,2.07
2023-07-31T03:22:47.980Z,1.97
2023-07-31T03:25:17.580Z,1.90
2023-07-31T03:27:45.622Z,1.77
2023-07-31T03:30:13.817Z,2.10
2023-07-31T03:32:41.999Z,2.20
2023-07-31T03:35:10.243Z,2.07
2023-07-31T03:37:38.920Z,2.07
2023-07-31T03:40:08.016Z,2.00
2023-07-31T03:42:37.474Z,2.17
2023-07-31T03:45:06.703Z,1.80
2023-07-31T03:47:34.850Z,2.00
2023-07-31T03:50:02.890Z,1.70
2023-07-31T03:52:31.070Z,1.60
2023-07-31T03:54:59.232Z,1.93
2023-07-31T03:57:27.445Z,2.07
2023-07-31T03:59:56.929Z,2.07
2023-07-31T04:02:25.060Z,1.97
2023-07-31T04:04:53.174Z,1.83
2023-07-31T04:07:21.328Z,1.83
2023-07-31T04:09:49.402Z,2.30
2023-07-31T04:12:17.500Z,1.93
2023-07-31T04:14:45.594Z,1.80
2023-07-31T04:17:15.070Z,2.07
2023-07-31T04:19:43.140Z,2.30
2023-07-31T04:22:11.271Z,1.90
2023-07-31T04:24:39.384Z,1.87
2023-07-31T04:27:07.780Z,1.83
2023-07-31T04:29:36.405Z,2.30
2023-07-31T04:32:04.699Z,1.80
2023-07-31T04:34:34.191Z,2.10
2023-07-31T04:37:02.248Z,1.70
2023-07-31T04:39:30.322Z,1.67
2023-07-31T04:41:58.361Z,1.83
2023-07-31T04:44:26.431Z,1.80
2023-07-31T04:46:54.553Z,2.17
2023-07-31T04:49:23.188Z,2.33
2023-07-31T04:51:52.623Z,1.33
2023-07-31T04:54:20.690Z,1.73
2023-07-31T04:56:49.134Z,1.90
2023-07-31T04:59:17.151Z,2.43
2023-07-31T05:01:46.296Z,1.87
2023-07-31T05:04:15.640Z,1.97
2023-07-31T05:06:43.782Z,1.43
2023-07-31T05:09:13.501Z,2.20
2023-07-31T05:11:43.968Z,1.60
2023-07-31T05:14:12.214Z,1.20
2023-07-31T05:16:40.566Z,1.50
2023-07-31T05:19:09.069Z,1.67
2023-07-31T05:21:37.191Z,1.63
2023-07-31T05:24:05.618Z,2.23
2023-07-31T05:26:35.047Z,2.10
2023-07-31T05:29:03.230Z,2.10
2023-07-31T05:31:33.501Z,1.53
2023-07-31T05:34:01.581Z,1.80
2023-07-31T05:36:29.688Z,1.87
2023-07-31T05:38:57.946Z,1.77
2023-07-31T05:41:26.066Z,1.70
2023-07-31T05:43:55.555Z,1.60
2023-07-31T05:46:23.717Z,1.77
2023-07-31T05:48:51.985Z,2.13
2023-07-31T05:51:20.043Z,1.57
2023-07-31T05:53:48.199Z,1.67
2023-07-31T05:56:16.269Z,2.00
2023-07-31T05:58:44.641Z,2.13
2023-07-31T06:01:14.110Z,1.50
2023-07-31T06:03:42.266Z,2.00
2023-07-31T06:06:10.540Z,2.10
2023-07-31T06:08:38.603Z,1.90
2023-07-31T06:11:06.854Z,2.30
2023-07-31T06:13:34.974Z,1.97
2023-07-31T06:16:06.229Z,1.50
2023-07-31T06:18:35.882Z,1.90
2023-07-31T06:21:03.971Z,1.70
2023-07-31T06:23:32.041Z,2.00
2023-07-31T06:26:00.146Z,2.57
2023-07-31T06:28:30.112Z,1.90
2023-07-31T06:30:58.426Z,1.63
2023-07-31T06:33:26.852Z,1.87
2023-07-31T06:35:56.560Z,1.90
2023-07-31T06:38:27.239Z,1.70
2023-07-31T06:40:55.664Z,1.83
2023-07-31T06:43:23.845Z,1.47
2023-07-31T06:45:52.667Z,1.97
2023-07-31T06:48:20.778Z,1.77
2023-07-31T06:50:48.860Z,1.53
2023-07-31T06:53:18.326Z,1.70
2023-07-31T06:55:46.426Z,1.47
2023-07-31T06:58:14.496Z,2.23
2023-07-31T07:00:42.572Z,2.00
2023-07-31T07:03:10.678Z,1.90
2023-07-31T07:05:38.788Z,1.73
2023-07-31T07:08:06.910Z,1.67
2023-07-31T07:10:36.459Z,2.30
2023-07-31T07:13:04.563Z,1.70
2023-07-31T07:15:32.600Z,1.67
2023-07-31T07:18:00.710Z,1.57
2023-07-31T07:20:28.774Z,1.80
2023-07-31T07:22:56.863Z,1.77
2023-07-31T07:25:24.917Z,1.60
2023-07-31T07:27:54.372Z,1.67
2023-07-31T07:30:22.438Z,1.70
2023-07-31T07:32:50.838Z,1.63
2023-07-31T07:35:18.929Z,2.00
2023-07-31T07:37:46.972Z,1.93
2023-07-31T07:40:15.029Z,2.10
2023-07-31T07:42:43.135Z,1.70
2023-07-31T07:45:12.905Z,2.07
2023-07-31T07:47:42.660Z,2.23
2023-07-31T07:50:11.364Z,1.67
2023-07-31T07:52:39.435Z,2.43
2023-07-31T07:55:08.425Z,1.83
2023-07-31T07:57:36.441Z,1.90
2023-07-31T08:00:05.258Z,1.93
2023-07-31T08:02:34.715Z,1.77
2023-07-31T08:05:02.939Z,2.93
2023-07-31T08:07:31.092Z,2.07
2023-07-31T08:09:59.150Z,2.47
2023-07-31T08:12:27.304Z,2.17
2023-07-31T08:14:55.422Z,1.80
2023-07-31T08:17:23.483Z,2.70
2023-07-31T08:19:52.998Z,1.50
2023-07-31T08:22:21.071Z,1.90
2023-07-31T08:24:49.116Z,1.80
2023-07-31T08:27:17.165Z,1.70
2023-07-31T08:29:45.302Z,2.30
2023-07-31T08:32:13.308Z,2.47
2023-07-31T08:34:42.822Z,1.70
2023-07-31T08:37:13.084Z,1.70
2023-07-31T08:39:41.705Z,2.23
2023-07-31T08:42:11.135Z,2.37
2023-07-31T08:44:40.512Z,2.33
2023-07-31T08:47:08.768Z,2.23
2023-07-31T08:49:38.521Z,1.70
2023-07-31T08:52:07.666Z,1.90
2023-07-31T08:54:37.028Z,2.00
2023-07-31T08:57:07.100Z,1.70
2023-07-31T08:59:37.219Z,2.80
2023-07-31T09:02:09.462Z,1.80
2023-07-31T09:04:37.641Z,2.20
2023-07-31T09:07:07.315Z,2.37
2023-07-31T09:09:36.898Z,2.90
2023-07-31T09:12:05.693Z,2.07
2023-07-31T09:14:34.458Z,1.80
2023-07-31T09:17:02.785Z,2.43
2023-07-31T09:19:35.075Z,1.87
2023-07-31T09:22:03.252Z,1.90
2023-07-31T09:24:33.035Z,1.87
2023-07-31T09:27:03.940Z,2.03
2023-07-31T09:29:32.378Z,1.73
2023-07-31T09:32:00.642Z,2.50
2023-07-31T09:34:38.508Z,2.10
2023-07-31T09:37:07.418Z,1.97
2023-07-31T09:39:48.240Z,2.40
2023-07-31T09:42:27.367Z,2.30
2023-07-31T09:44:57.641Z,1.97
2023-07-31T09:47:27.626Z,2.77
2023-07-31T09:49:56.086Z,2.53
2023-07-31T09:52:24.284Z,2.00
2023-07-31T09:54:52.359Z,2.43
2023-07-31T09:57:24.700Z,2.40
2023-07-31T09:59:54.838Z,1.77
2023-07-31T10:02:24.657Z,2.77
2023-07-31T10:04:53.874Z,2.07
2023-07-31T10:07:25.529Z,2.30
2023-07-31T10:09:56.016Z,2.37
2023-07-31T10:12:29.265Z,1.80
2023-07-31T10:14:57.838Z,2.27
2023-07-31T10:17:27.038Z,2.90
2023-07-31T10:19:55.695Z,1.87
2023-07-31T10:22:23.941Z,2.20
2023-07-31T10:24:54.514Z,2.97
2023-07-31T10:27:22.744Z,1.60
2023-07-31T10:29:54.458Z,2.60
2023-07-31T10:32:23.440Z,2.47
2023-07-31T10:34:52.365Z,2.33
2023-07-31T10:37:25.490Z,2.07
2023-07-31T10:40:01.523Z,2.70
2023-07-31T10:42:34.819Z,1.87
2023-07-31T10:45:06.723Z,2.00
2023-07-31T10:47:39.902Z,2.50
2023-07-31T10:50:16.195Z,2.17
2023-07-31T10:52:49.468Z,2.43
2023-07-31T10:55:33.500Z,2.17
2023-07-31T10:58:08.968Z,2.80
2023-07-31T11:00:39.805Z,2.40
2023-07-31T11:03:10.244Z,2.23
2023-07-31T11:05:54.497Z,1.97
2023-07-31T11:08:24.338Z,1.87
2023-07-31T11:10:55.094Z,2.47
2023-07-31T11:13:23.226Z,2.33
2023-07-31T11:15:53.456Z,2.47
2023-07-31T11:18:21.523Z,2.23
2023-07-31T11:20:49.787Z,2.17
2023-07-31T11:23:19.808Z,2.20
2023-07-31T11:25:48.257Z,2.43
2023-07-31T11:28:17.652Z,2.07
2023-07-31T11:30:47.003Z,2.13
2023-07-31T11:33:16.806Z,2.47
2023-07-31T11:35:46.859Z,2.10
2023-07-31T11:38:22.917Z,2.73
2023-07-31T11:40:51.005Z,2.23
2023-07-31T11:43:21.180Z,2.33
2023-07-31T11:45:50.657Z,2.13
2023-07-31T11:48:24.352Z,2.53
2023-07-31T11:50:54.245Z,2.70
2023-07-31T11:53:27.509Z,2.70
2023-07-31T11:55:56.336Z,2.40
2023-07-31T11:58:25.037Z,2.67
2023-07-31T12:00:53.932Z,2.30
2023-07-31T12:03:23.723Z,2.90
2023-07-31T12:05:52.089Z,2.50
2023-07-31T12:08:23.522Z,2.40
2023-07-31T12:10:52.825Z,2.50
2023-07-31T12:13:23.763Z,2.53
2023-07-31T12:15:57.358Z,2.57
2023-07-31T12:18:28.567Z,2.60
2023-07-31T12:20:58.021Z,2.73
2023-07-31T12:23:30.019Z,3.00
2023-07-31T12:26:05.528Z,2.60
2023-07-31T12:28:37.734Z,2.67
2023-07-31T12:31:07.200Z,2.60
2023-07-31T12:33:38.960Z,2.47
2023-07-31T12:36:09.982Z,3.27
2023-07-31T12:38:38.207Z,2.77
2023-07-31T12:41:07.919Z,2.60
2023-07-31T12:43:36.159Z,2.87
2023-07-31T12:46:05.013Z,2.63
2023-07-31T12:48:34.200Z,2.50
2023-07-31T12:51:03.899Z,2.10
2023-07-31T12:53:32.289Z,2.50
2023-07-31T12:56:00.765Z,2.40
2023-07-31T12:58:28.897Z,2.27
2023-07-31T13:00:57.156Z,2.97
2023-07-31T13:03:25.427Z,2.07
2023-07-31T13:05:54.205Z,2.90
2023-07-31T13:08:23.679Z,2.30
2023-07-31T13:10:51.777Z,2.70
2023-07-31T13:13:19.817Z,2.87
2023-07-31T13:15:47.913Z,2.20
2023-07-31T13:18:15.981Z,3.00
2023-07-31T13:20:44.021Z,1.97
2023-07-31T13:23:12.051Z,2.37
2023-07-31T13:25:41.497Z,2.70
2023-07-31T13:28:09.581Z,2.77
2023-07-31T13:30:37.681Z,2.47
2023-07-31T13:33:06.084Z,2.40
2023-07-31T13:35:34.712Z,2.33
2023-07-31T13:38:02.763Z,2.20
2023-07-31T13:40:30.817Z,3.97
2023-07-31T13:43:00.205Z,2.43
2023-07-31T13:45:28.276Z,2.70
2023-07-31T13:47:56.469Z,2.50
2023-07-31T13:50:24.584Z,1.80
2023-07-31T13:52:52.691Z,2.20
2023-07-31T13:55:20.717Z,2.33
2023-07-31T13:57:49.821Z,1.97
2023-07-31T14:00:19.610Z,2.60
2023-07-31T14:02:47.772Z,2.60
2023-07-31T14:05:15.974Z,1.80
2023-07-31T14:07:44.156Z,2.90
2023-07-31T14:10:12.277Z,3.00
2023-07-31T14:12:42.617Z,2.97
2023-07-31T14:15:12.295Z,2.60
2023-07-31T14:17:42.207Z,2.50
2023-07-31T14:20:12.377Z,2.23
2023-07-31T14:22:40.954Z,2.53
2023-07-31T14:25:11.473Z,3.20
2023-07-31T14:27:39.965Z,2.10
2023-07-31T14:30:09.560Z,2.87
2023-07-31T14:32:38.263Z,2.67
2023-07-31T14:35:08.406Z,2.53
2023-07-31T14:37:40.693Z,2.50
2023-07-31T14:40:10.085Z,2.43
2023-07-31T14:42:38.670Z,2.43
2023-07-31T14:45:11.125Z,3.03
2023-07-31T14:47:39.423Z,2.10
2023-07-31T14:50:10.014Z,2.30
2023-07-31T14:52:38.197Z,2.20
2023-07-31T14:55:07.164Z,2.43
2023-07-31T14:57:35.874Z,2.30
2023-07-31T15:00:08.354Z,3.17
2023-07-31T15:02:36.897Z,2.27
2023-07-31T15:05:05.451Z,2.83
2023-07-31T15:07:34.996Z,2.80
2023-07-31T15:10:03.916Z,2.80
2023-07-31T15:12:32.356Z,2.00
2023-07-31T15:15:00.691Z,2.23
2023-07-31T15:17:29.761Z,2.30
2023-07-31T15:19:57.873Z,2.43
2023-07-31T15:22:26.540Z,1.90
2023-07-31T15:24:56.012Z,2.50
2023-07-31T15:27:24.481Z,2.10
2023-07-31T15:29:52.704Z,2.60
2023-07-31T15:32:21.083Z,2.27
2023-07-31T15:34:49.164Z,2.40
2023-07-31T15:37:18.484Z,2.77
2023-07-31T15:39:46.651Z,2.60
2023-07-31T15:42:16.125Z,2.90
2023-07-31T15:44:44.198Z,2.53
2023-07-31T15:47:12.269Z,3.10
2023-07-31T15:49:40.315Z,2.73
2023-07-31T15:52:09.085Z,2.30
2023-07-31T15:54:37.159Z,2.60
2023-07-31T15:57:05.591Z,2.70
2023-07-31T15:59:35.022Z,2.63
2023-07-31T16:02:03.236Z,2.47
2023-07-31T16:04:31.322Z,2.53
2023-07-31T16:06:59.708Z,2.80
2023-07-31T16:09:27.828Z,2.03
2023-07-31T16:11:55.947Z,2.80
2023-07-31T16:14:24.081Z,2.60
2023-07-31T16:16:54.007Z,2.47
2023-07-31T16:19:22.570Z,2.90
2023-07-31T16:21:50.646Z,2.63
2023-07-31T16:24:18.690Z,2.50
2023-07-31T16:26:46.753Z,2.33
2023-07-31T16:29:14.901Z,2.20
2023-07-31T16:31:56.539Z,2.77
2023-07-31T16:34:27.657Z,2.77
2023-07-31T16:36:57.158Z,2.43
2023-07-31T16:39:25.706Z,2.47
2023-07-31T16:41:54.156Z,2.70
2023-07-31T16:44:22.342Z,2.30
2023-07-31T16:46:50.411Z,2.80
2023-07-31T16:49:18.473Z,2.17
2023-07-31T16:51:49.313Z,2.60
2023-07-31T16:54:17.582Z,2.70
2023-07-31T16:56:58.649Z,2.67
2023-07-31T16:59:28.680Z,2.63
2023-07-31T17:02:00.286Z,2.77
2023-07-31T17:04:43.371Z,2.50
2023-07-31T17:07:13.165Z,2.43
2023-07-31T17:09:41.176Z,2.80
2023-07-31T17:12:09.671Z,2.60
2023-07-31T17:14:37.697Z,2.30
2023-07-31T17:17:06.236Z,2.30
2023-07-31T17:19:34.303Z,2.30
2023-07-31T17:22:02.380Z,2.30
2023-07-31T17:24:31.800Z,3.10
2023-07-31T17:26:59.942Z,2.63
2023-07-31T17:29:31.095Z,3.53
2023-07-31T17:31:59.242Z,3.10
2023-07-31T17:34:27.318Z,2.43
2023-07-31T17:36:55.782Z,2.60
2023-07-31T17:39:24.006Z,3.00
2023-07-31T17:41:55.572Z,3.10
2023-07-31T17:44:23.902Z,2.47
2023-07-31T17:46:52.891Z,3.30
2023-07-31T17:49:21.094Z,3.57
2023-07-31T17:51:49.154Z,2.90
2023-07-31T17:54:17.353Z,3.70
2023-07-31T17:56:45.520Z,2.97
2023-07-31T17:59:15.002Z,2.70
2023-07-31T18:01:43.056Z,2.80
2023-07-31T18:04:12.126Z,3.13
2023-07-31T18:06:40.704Z,2.70
2023-07-31T18:09:10.436Z,2.87
2023-07-31T18:11:38.612Z,2.40
2023-07-31T18:14:08.528Z,3.10
2023-07-31T18:16:38.815Z,3.60
2023-07-31T18:19:07.453Z,2.97
2023-07-31T18:21:37.469Z,3.70
2023-07-31T18:24:06.542Z,2.83
2023-07-31T18:26:36.075Z,3.30
2023-07-31T18:29:04.397Z,2.90
2023-07-31T18:31:32.530Z,3.27
2023-07-31T18:34:01.983Z,3.27
2023-07-31T18:36:30.042Z,2.80
2023-07-31T18:38:58.590Z,3.57
2023-07-31T18:41:26.711Z,4.57
2023-07-31T18:43:54.802Z,4.07
2023-07-31T18:46:22.817Z,4.47
2023-07-31T18:48:50.941Z,4.40
2023-07-31T18:51:20.579Z,3.40
2023-07-31T18:53:48.733Z,3.47
2023-07-31T18:56:16.971Z,3.50
2023-07-31T18:58:45.077Z,3.17
2023-07-31T19:01:13.150Z,4.57
2023-07-31T19:03:41.259Z,4.47
2023-07-31T19:06:09.469Z,4.20
2023-07-31T19:08:39.189Z,3.87
2023-07-31T19:11:08.996Z,4.53
2023-07-31T19:13:38.702Z,3.80
2023-07-31T19:16:09.385Z,3.80
2023-07-31T19:18:38.525Z,3.80
2023-07-31T19:21:06.660Z,4.63
2023-07-31T19:23:34.840Z,3.60
2023-07-31T19:26:04.358Z,3.97
2023-07-31T19:28:32.557Z,3.50
2023-07-31T19:31:01.142Z,4.10
2023-07-31T19:33:29.322Z,5.07
2023-07-31T19:35:58.877Z,3.97
2023-07-31T19:38:27.554Z,3.90
2023-07-31T19:40:55.662Z,4.50
2023-07-31T19:43:25.199Z,4.20
2023-07-31T19:45:54.541Z,4.40
2023-07-31T19:48:23.018Z,3.80
2023-07-31T19:50:51.303Z,4.83
2023-07-31T19:53:22.917Z,4.07
2023-07-31T19:55:51.755Z,5.00
2023-07-31T19:58:19.962Z,5.20
2023-07-31T20:00:49.371Z,4.53
2023-07-31T20:03:19.427Z,5.17
2023-07-31T20:05:49.715Z,3.23
2023-07-31T20:08:18.087Z,4.90
2023-07-31T20:10:46.688Z,3.60
2023-07-31T20:13:14.986Z,4.03
2023-07-31T20:15:43.282Z,5.43
2023-07-31T20:18:12.909Z,4.10
2023-07-31T20:20:41.135Z,4.53
2023-07-31T20:23:09.484Z,4.40
2023-07-31T20:25:37.664Z,5.13
2023-07-31T20:28:06.111Z,4.30
2023-07-31T20:30:34.573Z,4.43
2023-07-31T20:33:02.781Z,5.03
2023-07-31T20:35:32.304Z,4.57
2023-07-31T20:38:00.400Z,4.50
2023-07-31T20:40:28.731Z,4.80
2023-07-31T20:42:58.437Z,4.80
2023-07-31T20:45:28.946Z,5.17
2023-07-31T20:47:57.277Z,4.13
2023-07-31T20:50:25.674Z,4.50
2023-07-31T20:52:55.318Z,4.50
2023-07-31T20:55:23.486Z,5.13
2023-07-31T20:57:53.386Z,5.33
2023-07-31T21:00:22.822Z,4.20
2023-07-31T21:02:51.285Z,4.50
2023-07-31T21:05:19.625Z,4.80
2023-07-31T21:07:47.738Z,4.73
2023-07-31T21:10:17.349Z,4.13
2023-07-31T21:12:45.904Z,3.70
2023-07-31T21:15:14.827Z,3.83
2023-07-31T21:17:42.984Z,4.00
2023-07-31T21:20:11.647Z,3.50
2023-07-31T21:22:39.876Z,4.30
2023-07-31T21:25:08.653Z,3.70
2023-07-31T21:27:38.310Z,3.70
2023-07-31T21:30:07.295Z,4.30
2023-07-31T21:32:35.461Z,4.13
2023-07-31T21:35:03.742Z,3.97
2023-07-31T21:37:31.931Z,3.60
2023-07-31T21:40:00.180Z,3.70
2023-07-31T21:42:28.349Z,4.10
2023-07-31T21:44:57.776Z,3.77
2023-07-31T21:47:25.955Z,3.77
2023-07-31T21:49:54.073Z,3.27
2023-07-31T21:52:28.066Z,3.80
2023-07-31T21:54:56.175Z,3.47
2023-07-31T21:57:24.295Z,3.97
2023-07-31T21:59:52.389Z,4.30
2023-07-31T22:02:21.970Z,3.27
2023-07-31T22:04:50.086Z,4.00
2023-07-31T22:07:18.377Z,3.77
2023-07-31T22:09:46.527Z,3.80
2023-07-31T22:12:14.654Z,3.53
2023-07-31T22:14:43.002Z,3.70
2023-07-31T22:17:11.191Z,2.90
2023-07-31T22:19:40.649Z,3.40
2023-07-31T22:22:08.999Z,3.23
2023-07-31T22:24:37.452Z,3.17
2023-07-31T22:27:06.158Z,3.57
2023-07-31T22:29:34.313Z,3.40
2023-07-31T22:32:02.427Z,3.10
2023-07-31T22:34:30.469Z,3.80
2023-07-31T22:36:59.953Z,3.60
2023-07-31T22:39:28.009Z,2.93
2023-07-31T22:41:56.096Z,3.10
2023-07-31T22:44:24.202Z,4.17
2023-07-31T22:46:52.290Z,3.20
2023-07-31T22:49:20.409Z,3.67
2023-07-31T22:51:48.484Z,3.40
2023-07-31T22:54:17.842Z,3.50
2023-07-31T22:56:45.927Z,3.03
2023-07-31T22:59:13.997Z,3.40
2023-07-31T23:01:42.204Z,2.90
2023-07-31T23:04:12.069Z,3.17
2023-07-31T23:06:40.358Z,3.03
2023-07-31T23:09:08.705Z,3.40
2023-07-31T23:11:38.292Z,3.23
2023-07-31T23:14:06.369Z,3.00
2023-07-31T23:16:34.540Z,3.03
2023-07-31T23:19:02.685Z,2.90
2023-07-31T23:21:30.755Z,3.00
2023-07-31T23:23:58.855Z,3.10
2023-07-31T23:26:27.012Z,3.67
2023-07-31T23:28:57.819Z,2.87
2023-07-31T23:31:25.972Z,3.03
2023-07-31T23:33:54.205Z,3.20
2023-07-31T23:36:22.290Z,3.37
2023-07-31T23:38:50.376Z,4.00
2023-07-31T23:41:19.611Z,3.50
2023-07-31T23:43:47.698Z,3.07
2023-07-31T23:46:17.191Z,3.33
2023-07-31T23:48:45.385Z,3.50
2023-07-31T23:51:13.767Z,3.50
2023-07-31T23:53:41.910Z,3.70
2023-07-31T23:56:10.340Z,3.50
2023-07-31T23:58:38.535Z,4.07
